createdAt,value
2018-11-07T00:01:18.354Z,100595.20
2018-11-07T00:03:47.689Z,100601.98
2018-11-07T00:06:16.783Z,100608.19
2018-11-07T00:08:45.854Z,100604.80
2018-11-07T00:11:14.927Z,100598.05
2018-11-07T00:13:43.977Z,100597.38
2018-11-07T00:16:13.223Z,100600.50
2018-11-07T00:18:42.267Z,100607.62
2018-11-07T00:21:11.310Z,100605.23
2018-11-07T00:23:40.345Z,100610.86
2018-11-07T00:26:09.421Z,100615.88
2018-11-07T00:28:38.482Z,100613.84
2018-11-07T00:31:07.776Z,100614.45
2018-11-07T00:33:36.828Z,100609.39
2018-11-07T00:36:06.447Z,100613.28
2018-11-07T00:38:35.498Z,100608.05
2018-11-07T00:41:04.563Z,100607.52
2018-11-07T00:43:33.620Z,100614.19
2018-11-07T00:46:02.706Z,100614.80
2018-11-07T00:48:31.742Z,100615.29
2018-11-07T00:51:00.795Z,100618.71
2018-11-07T00:53:29.868Z,100614.30
2018-11-07T00:56:01.747Z,100614.31
2018-11-07T00:58:30.849Z,100622.03
2018-11-07T01:00:59.890Z,100621.82
2018-11-07T01:03:29.054Z,100619.63
2018-11-07T01:05:59.137Z,100622.95
2018-11-07T01:08:28.178Z,100632.97
2018-11-07T01:10:57.209Z,100641.81
2018-11-07T01:13:26.273Z,100642.61
2018-11-07T01:15:55.353Z,100638.23
2018-11-07T01:18:24.408Z,100638.66
2018-11-07T01:20:53.470Z,100629.92
2018-11-07T01:23:22.523Z,100632.06
2018-11-07T01:25:51.609Z,100624.27
2018-11-07T01:28:20.674Z,100621.22
2018-11-07T01:30:49.732Z,100617.16
2018-11-07T01:33:18.766Z,100613.77
2018-11-07T01:35:47.817Z,100612.22
2018-11-07T01:38:16.858Z,100606.27
2018-11-07T01:40:45.935Z,100615.87
2018-11-07T01:43:14.980Z,100616.09
2018-11-07T01:45:44.080Z,100615.98
2018-11-07T01:48:13.221Z,100613.56
2018-11-07T01:50:42.309Z,100620.36
2018-11-07T01:53:11.391Z,100617.69
2018-11-07T01:55:40.441Z,100619.28
2018-11-07T01:58:09.465Z,100623.26
2018-11-07T02:00:38.567Z,100631.31
2018-11-07T02:03:07.629Z,100630.69
2018-11-07T02:05:36.662Z,100628.08
2018-11-07T02:08:06.687Z,100622.73
2018-11-07T02:10:35.758Z,100628.53
2018-11-07T02:13:05.173Z,100628.95
2018-11-07T02:15:34.241Z,100621.79
2018-11-07T02:18:03.320Z,100624.16
2018-11-07T02:20:32.381Z,100617.05
2018-11-07T02:23:01.486Z,100614.86
2018-11-07T02:25:30.563Z,100619.15
2018-11-07T02:27:59.653Z,100612.97
2018-11-07T02:30:29.578Z,100611.77
2018-11-07T02:32:58.633Z,100603.98
2018-11-07T02:35:27.703Z,100603.55
2018-11-07T02:37:56.773Z,100600.66
2018-11-07T02:40:25.852Z,100593.80
2018-11-07T02:42:54.893Z,100595.58
2018-11-07T02:45:23.967Z,100590.95
2018-11-07T02:47:53.003Z,100588.04
2018-11-07T02:50:22.109Z,100586.41
2018-11-07T02:52:51.188Z,100590.16
2018-11-07T02:55:20.252Z,100576.48
2018-11-07T02:57:49.331Z,100571.28
2018-11-07T03:00:18.450Z,100578.41
2018-11-07T03:02:47.493Z,100573.41
2018-11-07T03:05:16.553Z,100574.30
2018-11-07T03:07:45.621Z,100573.69
2018-11-07T03:10:14.721Z,100571.52
2018-11-07T03:12:45.152Z,100565.14
2018-11-07T03:15:14.261Z,100567.42
2018-11-07T03:17:43.337Z,100572.69
2018-11-07T03:20:13.734Z,100571.70
2018-11-07T03:22:42.905Z,100573.06
2018-11-07T03:25:11.990Z,100564.04
2018-11-07T03:27:41.043Z,100559.11
2018-11-07T03:30:10.409Z,100568.42
2018-11-07T03:32:39.583Z,100557.53
2018-11-07T03:35:39.503Z,100552.72
2018-11-07T03:38:08.553Z,100549.37
2018-11-07T03:40:37.622Z,100536.94
2018-11-07T03:43:06.797Z,100534.84
2018-11-07T03:45:41.194Z,100533.67
2018-11-07T03:48:10.234Z,100537.17
2018-11-07T03:53:26.690Z,100538.83
2018-11-07T03:55:55.932Z,100543.38
2018-11-07T03:58:24.997Z,100545.94
2018-11-07T04:00:54.954Z,100540.28
2018-11-07T04:03:24.115Z,100534.45
2018-11-07T04:05:53.170Z,100536.52
2018-11-07T04:08:22.235Z,100533.34
2018-11-07T04:10:51.294Z,100530.80
2018-11-07T04:13:20.390Z,100540.94
2018-11-07T04:15:49.391Z,100548.77
2018-11-07T04:18:18.481Z,100547.67
2018-11-07T04:20:47.505Z,100552.43
2018-11-07T04:23:16.567Z,100557.54
2018-11-07T04:25:45.669Z,100551.43
2018-11-07T04:28:14.740Z,100558.88
2018-11-07T04:30:43.765Z,100557.61
2018-11-07T04:33:12.811Z,100559.70
2018-11-07T04:35:41.892Z,100560.63
2018-11-07T04:38:10.934Z,100551.41
2018-11-07T04:40:40.191Z,100550.30
2018-11-07T04:43:09.233Z,100548.77
2018-11-07T04:45:38.311Z,100550.41
2018-11-07T04:48:07.382Z,100552.67
2018-11-07T04:50:37.434Z,100554.23
2018-11-07T04:53:06.473Z,100546.84
2018-11-07T04:55:35.552Z,100548.30
2018-11-07T04:58:04.642Z,100546.84
2018-11-07T05:00:33.720Z,100533.80
2018-11-07T05:03:02.801Z,100546.56
2018-11-07T05:05:32.810Z,100545.94
2018-11-07T05:08:01.834Z,100548.94
2018-11-07T05:10:30.886Z,100554.28
2018-11-07T05:12:59.921Z,100557.56
2018-11-07T05:15:29.029Z,100549.33
2018-11-07T05:17:58.100Z,100535.47
2018-11-07T05:20:27.217Z,100536.38
2018-11-07T05:22:56.812Z,100533.65
2018-11-07T05:25:25.900Z,100524.52
2018-11-07T05:27:54.987Z,100534.08
2018-11-07T05:30:24.081Z,100519.04
2018-11-07T05:32:53.163Z,100524.97
2018-11-07T05:35:22.337Z,100526.16
2018-11-07T05:37:51.403Z,100524.50
2018-11-07T05:40:20.512Z,100526.70
2018-11-07T05:42:49.991Z,100522.33
2018-11-07T05:45:19.082Z,100511.82
2018-11-07T05:47:48.094Z,100518.09
2018-11-07T05:50:17.146Z,100529.10
2018-11-07T05:52:46.407Z,100531.77
2018-11-07T05:55:15.446Z,100530.50
2018-11-07T05:57:44.479Z,100549.42
2018-11-07T06:00:13.575Z,100547.39
2018-11-07T06:02:42.628Z,100552.04
2018-11-07T06:05:12.508Z,100553.86
2018-11-07T06:07:42.160Z,100554.49
2018-11-07T06:10:12.936Z,100541.53
2018-11-07T06:12:42.346Z,100547.58
2018-11-07T06:15:12.140Z,100545.95
2018-11-07T06:17:41.187Z,100547.87
2018-11-07T06:20:11.108Z,100551.02
2018-11-07T06:22:40.189Z,100545.20
2018-11-07T06:25:15.172Z,100543.19
2018-11-07T06:27:45.379Z,100541.37
2018-11-07T06:30:15.420Z,100551.84
2018-11-07T06:32:45.545Z,100553.77
2018-11-07T06:35:14.612Z,100547.14
2018-11-07T06:37:44.657Z,100561.06
2018-11-07T06:40:13.712Z,100554.78
2018-11-07T06:42:42.787Z,100562.91
2018-11-07T06:45:12.043Z,100559.63
2018-11-07T06:47:41.113Z,100565.27
2018-11-07T06:50:12.980Z,100566.37
2018-11-07T06:52:42.177Z,100565.93
2018-11-07T06:55:11.917Z,100566.75
2018-11-07T06:57:41.022Z,100564.05
2018-11-07T07:00:12.801Z,100565.89
2018-11-07T07:02:42.187Z,100568.05
2018-11-07T07:05:11.240Z,100566.26
2018-11-07T07:07:41.202Z,100564.91
2018-11-07T07:10:16.027Z,100566.19
2018-11-07T07:12:45.598Z,100570.14
2018-11-07T07:15:16.880Z,100569.05
2018-11-07T07:17:46.179Z,100568.33
2018-11-07T07:20:18.555Z,100563.06
2018-11-07T07:22:50.902Z,100566.44
2018-11-07T07:25:26.622Z,100567.26
2018-11-07T07:27:57.147Z,100569.45
2018-11-07T07:30:33.101Z,100520.84
2018-11-07T07:33:03.357Z,100555.06
2018-11-07T07:35:32.314Z,100560.26
2018-11-07T07:38:01.505Z,100556.33
2018-11-07T07:40:32.543Z,100559.44
2018-11-07T07:43:01.692Z,100554.86
2018-11-07T07:45:30.877Z,100566.45
2018-11-07T07:47:59.881Z,100559.61
2018-11-07T07:50:28.950Z,100559.80
2018-11-07T07:53:03.101Z,100569.46
2018-11-07T07:55:33.137Z,100569.30
2018-11-07T07:58:03.269Z,100555.16
2018-11-07T08:00:33.973Z,100566.75
2018-11-07T08:03:03.069Z,100554.60
2018-11-07T08:05:32.178Z,100560.64
2018-11-07T08:08:01.311Z,100559.81
2018-11-07T08:10:30.390Z,100549.67
2018-11-07T08:12:59.966Z,100554.95
2018-11-07T08:15:29.169Z,100551.95
2018-11-07T08:17:58.211Z,100544.11
2018-11-07T08:20:27.274Z,100557.95
2018-11-07T08:22:56.451Z,100555.05
2018-11-07T08:27:10.731Z,100560.70
2018-11-07T08:29:39.901Z,100568.16
2018-11-07T08:32:08.958Z,100570.98
2018-11-07T08:34:38.866Z,100569.60
2018-11-07T08:37:08.629Z,100564.69
2018-11-07T08:39:38.600Z,100574.34
2018-11-07T08:42:07.708Z,100570.69
2018-11-07T08:44:38.282Z,100578.13
2018-11-07T08:47:09.278Z,100573.84
2018-11-07T08:49:39.157Z,100585.44
2018-11-07T08:52:08.220Z,100577.66
2018-11-07T08:54:43.410Z,100577.55
2018-11-07T08:57:12.563Z,100582.00
2018-11-07T08:59:41.638Z,100584.80
2018-11-07T09:02:10.731Z,100579.42
2018-11-07T09:04:39.742Z,100576.47
2018-11-07T09:07:08.789Z,100579.66
2018-11-07T09:09:37.899Z,100584.25
2018-11-07T09:12:07.180Z,100585.56
2018-11-07T09:14:36.197Z,100580.12
2018-11-07T09:17:05.384Z,100584.67
2018-11-07T09:19:34.453Z,100582.55
2018-11-07T09:22:03.619Z,100584.69
2018-11-07T09:24:33.553Z,100579.84
2018-11-07T09:27:02.565Z,100580.63
2018-11-07T09:29:31.663Z,100585.47
2018-11-07T09:32:00.805Z,100578.14
2018-11-07T09:34:30.076Z,100581.91
2018-11-07T09:36:59.113Z,100577.69
2018-11-07T09:39:28.169Z,100579.80
2018-11-07T09:41:57.263Z,100570.96
2018-11-07T09:44:26.301Z,100582.50
2018-11-07T09:46:56.870Z,100579.72
2018-11-07T09:49:26.030Z,100575.82
2018-11-07T09:51:55.067Z,100575.05
2018-11-07T09:54:24.208Z,100577.90
2018-11-07T09:56:53.280Z,100579.48
2018-11-07T09:59:22.420Z,100580.40
2018-11-07T10:01:51.451Z,100569.84
2018-11-07T10:04:20.574Z,100570.35
2018-11-07T10:06:50.097Z,100564.52
2018-11-07T10:09:19.209Z,100566.48
2018-11-07T10:11:48.340Z,100566.27
2018-11-07T10:14:17.422Z,100564.13
2018-11-07T10:16:47.398Z,100565.79
2018-11-07T10:19:16.511Z,100563.67
2018-11-07T10:21:45.610Z,100562.87
2018-11-07T10:24:14.628Z,100564.73
2018-11-07T10:26:44.160Z,100558.87
2018-11-07T10:29:13.309Z,100556.14
2018-11-07T10:31:43.209Z,100564.70
2018-11-07T10:34:12.324Z,100567.77
2018-11-07T10:36:41.891Z,100556.69
2018-11-07T10:39:11.538Z,100558.98
2018-11-07T10:41:40.623Z,100556.78
2018-11-07T10:44:09.700Z,100548.59
2018-11-07T10:46:39.470Z,100565.56
2018-11-07T10:49:08.577Z,100551.15
2018-11-07T10:51:37.717Z,100553.70
2018-11-07T10:54:07.759Z,100550.80
2018-11-07T10:56:37.483Z,100543.23
2018-11-07T10:59:06.586Z,100540.06
2018-11-07T11:01:43.595Z,100542.74
2018-11-07T11:04:12.735Z,100536.44
2018-11-07T11:06:45.178Z,100545.39
2018-11-07T11:09:15.028Z,100547.86
2018-11-07T11:11:44.134Z,100540.67
2018-11-07T11:14:13.299Z,100539.86
2018-11-07T11:16:42.386Z,100536.94
2018-11-07T11:19:11.463Z,100534.36
2018-11-07T11:21:40.573Z,100538.70
2018-11-07T11:24:09.695Z,100547.88
2018-11-07T11:26:38.791Z,100545.45
2018-11-07T11:29:08.252Z,100542.75
2018-11-07T11:31:37.587Z,100533.45
2018-11-07T11:34:06.732Z,100541.94
2018-11-07T11:36:35.691Z,100540.42
2018-11-07T11:39:06.613Z,100546.16
2018-11-07T11:41:35.671Z,100545.08
2018-11-07T11:44:05.255Z,100554.45
2018-11-07T11:46:34.483Z,100552.01
2018-11-07T11:49:07.456Z,100553.41
2018-11-07T11:51:36.506Z,100560.53
2018-11-07T11:54:06.872Z,100565.54
2018-11-07T11:56:36.013Z,100554.92
2018-11-07T11:59:05.251Z,100557.27
2018-11-07T12:01:34.223Z,100561.46
2018-11-07T12:04:03.362Z,100564.03
2018-11-07T12:06:32.449Z,100561.23
2018-11-07T12:09:02.140Z,100564.61
2018-11-07T12:11:31.088Z,100570.22
2018-11-07T12:14:00.929Z,100567.06
2018-11-07T12:16:30.340Z,100562.64
2018-11-07T12:18:59.428Z,100559.01
2018-11-07T12:21:28.535Z,100564.86
2018-11-07T12:23:57.532Z,100563.23
2018-11-07T12:26:26.633Z,100566.48
2018-11-07T12:28:55.709Z,100561.47
2018-11-07T12:31:24.762Z,100566.26
2018-11-07T12:33:53.854Z,100560.30
2018-11-07T12:36:22.973Z,100579.47
2018-11-07T12:38:52.038Z,100572.67
2018-11-07T12:41:23.136Z,100572.31
2018-11-07T12:43:52.264Z,100568.25
2018-11-07T12:46:22.186Z,100562.52
2018-11-07T12:48:53.631Z,100573.48
2018-11-07T12:51:36.907Z,100570.94
2018-11-07T12:54:09.443Z,100564.38
2018-11-07T12:56:38.550Z,100563.55
2018-11-07T12:59:07.690Z,100561.58
2018-11-07T13:01:37.752Z,100566.95
2018-11-07T13:04:08.868Z,100558.98
2018-11-07T13:06:37.946Z,100569.15
2018-11-07T13:09:08.948Z,100567.41
2018-11-07T13:11:43.760Z,100574.31
2018-11-07T13:14:12.826Z,100576.06
2018-11-07T13:16:41.971Z,100581.21
2018-11-07T13:19:11.126Z,100584.02
2018-11-07T13:21:41.311Z,100584.83
2018-11-07T13:24:11.038Z,100589.72
2018-11-07T13:26:41.137Z,100597.09
2018-11-07T13:29:11.446Z,100595.23
2018-11-07T13:31:47.092Z,100589.38
2018-11-07T13:34:16.203Z,100598.97
2018-11-07T13:36:46.489Z,100605.41
2018-11-07T13:39:15.899Z,100606.91
2018-11-07T13:41:44.672Z,100606.56
2018-11-07T13:44:13.734Z,100604.67
2018-11-07T13:46:42.803Z,100608.66
2018-11-07T13:49:11.846Z,100615.67
2018-11-07T13:51:40.907Z,100616.35
2018-11-07T13:54:09.984Z,100618.12
2018-11-07T13:56:39.081Z,100619.85
2018-11-07T13:59:10.445Z,100629.42
2018-11-07T14:01:39.520Z,100626.75
2018-11-07T14:04:08.595Z,100627.41
2018-11-07T14:06:37.656Z,100637.75
2018-11-07T14:09:08.950Z,100638.38
2018-11-07T14:11:38.038Z,100648.24
2018-11-07T14:14:07.275Z,100655.59
2018-11-07T14:16:36.441Z,100646.91
2018-11-07T14:19:06.311Z,100651.98
2018-11-07T14:21:35.342Z,100653.83
2018-11-07T14:24:05.022Z,100656.88
2018-11-07T14:26:34.832Z,100661.67
2018-11-07T14:29:03.891Z,100657.95
2018-11-07T14:31:33.334Z,100656.85
2018-11-07T14:34:03.850Z,100658.02
2018-11-07T14:36:34.026Z,100663.07
2018-11-07T14:39:03.830Z,100658.91
2018-11-07T14:41:32.852Z,100663.85
2018-11-07T14:44:01.936Z,100660.98
2018-11-07T14:46:30.990Z,100666.19
2018-11-07T14:49:00.022Z,100668.80
2018-11-07T14:51:29.075Z,100668.03
2018-11-07T14:53:58.215Z,100676.30
2018-11-07T14:56:27.231Z,100684.63
2018-11-07T14:58:56.266Z,100686.81
2018-11-07T15:01:25.363Z,100690.89
2018-11-07T15:03:54.406Z,100684.34
2018-11-07T15:06:23.457Z,100691.75
2018-11-07T15:08:52.602Z,100690.44
2018-11-07T15:11:21.665Z,100687.98
2018-11-07T15:13:50.723Z,100689.13
2018-11-07T15:16:19.765Z,100688.33
2018-11-07T15:18:48.775Z,100687.94
2018-11-07T15:21:17.840Z,100685.41
2018-11-07T15:23:46.833Z,100685.38
2018-11-07T15:26:15.916Z,100673.92
2018-11-07T15:28:44.970Z,100675.70
2018-11-07T15:31:14.641Z,100674.36
2018-11-07T15:33:44.122Z,100676.08
2018-11-07T15:36:13.375Z,100674.37
2018-11-07T15:38:42.316Z,100685.47
2018-11-07T15:41:11.378Z,100672.48
2018-11-07T15:43:42.002Z,100680.62
2018-11-07T15:46:11.073Z,100680.88
2018-11-07T15:48:40.678Z,100677.87
2018-11-07T15:54:12.003Z,100683.44
2018-11-07T15:56:41.146Z,100682.75
2018-11-07T15:59:10.249Z,100680.91
2018-11-07T16:01:39.541Z,100679.84
2018-11-07T16:04:09.682Z,100672.62
2018-11-07T16:06:38.816Z,100667.02
2018-11-07T16:09:09.598Z,100671.47
2018-11-07T16:11:38.694Z,100663.75
2018-11-07T16:14:07.806Z,100657.00
2018-11-07T16:16:36.884Z,100652.68
2018-11-07T16:19:06.917Z,100647.67
2018-11-07T16:21:35.958Z,100656.58
2018-11-07T16:24:06.109Z,100674.92
2018-11-07T16:26:34.998Z,100679.20
2018-11-07T16:29:04.102Z,100675.80
2018-11-07T16:31:33.210Z,100703.22
2018-11-07T16:34:02.243Z,100722.55
2018-11-07T16:36:31.323Z,100731.52
2018-11-07T16:39:00.402Z,100734.27
2018-11-07T16:41:29.581Z,100746.76
2018-11-07T16:43:58.526Z,100758.27
2018-11-07T16:46:28.630Z,100766.78
2018-11-07T16:48:57.691Z,100763.00
2018-11-07T16:51:26.811Z,100764.95
2018-11-07T16:53:55.898Z,100760.55
2018-11-07T16:56:25.228Z,100772.50
2018-11-07T16:58:54.288Z,100783.85
2018-11-07T17:01:23.327Z,100791.81
2018-11-07T17:03:52.883Z,100798.38
2018-11-07T17:06:21.959Z,100801.77
2018-11-07T17:08:51.000Z,100799.39
2018-11-07T17:11:20.047Z,100801.83
2018-11-07T17:13:49.067Z,100805.95
2018-11-07T17:16:18.121Z,100812.45
2018-11-07T17:18:47.192Z,100805.77
2018-11-07T17:21:16.275Z,100811.05
2018-11-07T17:23:45.343Z,100818.91
2018-11-07T17:26:14.402Z,100827.25
2018-11-07T17:28:43.431Z,100824.23
2018-11-07T17:31:12.504Z,100822.85
2018-11-07T17:33:41.546Z,100824.02
2018-11-07T17:36:10.616Z,100831.09
2018-11-07T17:38:39.710Z,100828.26
2018-11-07T17:41:09.335Z,100826.52
2018-11-07T17:43:38.409Z,100831.89
2018-11-07T17:46:07.596Z,100836.59
2018-11-07T17:48:36.997Z,100840.30
2018-11-07T17:51:06.159Z,100850.17
2018-11-07T17:53:35.232Z,100852.66
2018-11-07T17:56:04.319Z,100855.09
2018-11-07T17:58:33.389Z,100858.22
2018-11-07T18:01:02.483Z,100857.37
2018-11-07T18:03:31.806Z,100855.82
2018-11-07T18:06:00.953Z,100868.73
2018-11-07T18:08:30.026Z,100868.52
2018-11-07T18:10:59.129Z,100879.59
2018-11-07T18:13:28.222Z,100886.09
2018-11-07T18:15:57.673Z,100878.75
2018-11-07T18:18:26.796Z,100874.74
2018-11-07T18:20:56.435Z,100870.05
2018-11-07T18:23:26.129Z,100873.45
2018-11-07T18:25:55.228Z,100882.14
2018-11-07T18:28:24.292Z,100880.14
2018-11-07T18:30:53.382Z,100877.02
2018-11-07T18:33:22.512Z,100879.97
2018-11-07T18:35:51.582Z,100876.37
2018-11-07T18:38:20.693Z,100873.56
2018-11-07T18:40:49.813Z,100886.54
2018-11-07T18:43:18.962Z,100882.42
2018-11-07T18:45:47.860Z,100881.41
2018-11-07T18:48:16.910Z,100879.92
2018-11-07T18:50:46.045Z,100886.09
2018-11-07T18:53:15.604Z,100886.54
2018-11-07T18:55:44.645Z,100885.72
2018-11-07T18:58:14.053Z,100882.44
2018-11-07T19:00:43.248Z,100876.14
2018-11-07T19:03:12.259Z,100891.02
2018-11-07T19:05:42.318Z,100893.41
2018-11-07T19:08:11.384Z,100894.40
2018-11-07T19:10:40.786Z,100901.19
2018-11-07T19:13:09.830Z,100903.31
2018-11-07T19:15:38.885Z,100894.86
2018-11-07T19:18:07.951Z,100890.39
2018-11-07T19:20:37.189Z,100897.63
2018-11-07T19:23:06.274Z,100893.06
2018-11-07T19:25:35.317Z,100904.59
2018-11-07T19:28:05.579Z,100905.59
2018-11-07T19:30:35.465Z,100909.27
2018-11-07T19:33:04.621Z,100909.61
2018-11-07T19:35:33.613Z,100908.78
2018-11-07T19:38:02.656Z,100916.12
2018-11-07T19:40:31.742Z,100913.34
2018-11-07T19:43:00.774Z,100915.56
2018-11-07T19:45:29.892Z,100924.17
2018-11-07T19:48:00.819Z,100933.38
2018-11-07T19:50:29.911Z,100938.33
2018-11-07T19:52:58.976Z,100934.11
2018-11-07T19:55:28.062Z,100928.09
2018-11-07T19:58:01.910Z,100940.44
2018-11-07T20:00:31.011Z,100943.00
2018-11-07T20:03:00.062Z,100949.74
2018-11-07T20:05:29.152Z,100954.24
2018-11-07T20:07:58.484Z,100957.80
2018-11-07T20:10:27.824Z,100960.28
2018-11-07T20:12:56.837Z,100963.84
2018-11-07T20:15:26.110Z,100968.69
2018-11-07T20:17:55.190Z,100974.16
2018-11-07T20:20:25.178Z,100970.41
2018-11-07T20:22:54.498Z,100980.84
2018-11-07T20:25:23.538Z,100986.79
2018-11-07T20:27:52.607Z,100992.27
2018-11-07T20:30:22.306Z,100996.83
2018-11-07T20:32:51.436Z,100997.94
2018-11-07T20:35:21.377Z,100987.70
2018-11-07T20:37:50.338Z,100992.34
2018-11-07T20:40:20.709Z,100998.46
2018-11-07T20:42:49.760Z,101010.34
2018-11-07T20:45:19.243Z,101010.80
2018-11-07T20:47:48.305Z,101021.03
2018-11-07T20:50:19.278Z,101019.20
2018-11-07T20:52:48.674Z,101018.67
2018-11-07T20:55:18.081Z,101020.02
2018-11-07T20:57:47.225Z,101023.06
2018-11-07T21:00:19.377Z,101028.92
2018-11-07T21:02:48.747Z,101030.73
2018-11-07T21:05:18.040Z,101035.47
2018-11-07T21:07:47.111Z,101032.80
2018-11-07T21:10:21.279Z,101039.41
2018-11-07T21:12:50.915Z,101046.98
2018-11-07T21:15:20.876Z,101049.17
2018-11-07T21:17:50.810Z,101054.37
2018-11-07T21:20:19.945Z,101055.28
2018-11-07T21:22:48.955Z,101054.83
2018-11-07T21:25:18.026Z,101055.61
2018-11-07T21:27:47.497Z,101060.25
2018-11-07T21:30:16.581Z,101057.39
2018-11-07T21:32:45.822Z,101061.30
2018-11-07T21:35:14.992Z,101067.50
2018-11-07T21:37:43.994Z,101075.15
2018-11-07T21:40:15.018Z,101080.70
2018-11-07T21:42:44.639Z,101085.89
2018-11-07T21:45:14.345Z,101092.16
2018-11-07T21:47:43.731Z,101085.47
2018-11-07T21:50:14.406Z,101089.37
2018-11-07T21:52:43.465Z,101086.52
2018-11-07T21:55:12.535Z,101083.36
2018-11-07T21:57:41.633Z,101090.68
2018-11-07T22:00:14.984Z,101091.77
2018-11-07T22:02:44.243Z,101097.52
2018-11-07T22:05:13.871Z,101097.77
2018-11-07T22:07:43.785Z,101100.97
2018-11-07T22:10:13.906Z,101100.08
2018-11-07T22:12:42.965Z,101110.95
2018-11-07T22:15:12.011Z,101110.37
2018-11-07T22:17:41.264Z,101103.48
2018-11-07T22:20:13.272Z,101107.41
2018-11-07T22:22:42.482Z,101119.45
2018-11-07T22:25:11.589Z,101119.95
2018-11-07T22:27:40.778Z,101115.57
2018-11-07T22:30:11.499Z,101121.92
2018-11-07T22:32:41.229Z,101113.55
2018-11-07T22:35:11.946Z,101123.36
2018-11-07T22:37:43.282Z,101126.30
2018-11-07T22:40:13.855Z,101125.95
2018-11-07T22:42:43.190Z,101133.92
2018-11-07T22:45:12.821Z,101127.68
2018-11-07T22:47:41.900Z,101139.03
2018-11-07T22:50:13.181Z,101138.20
2018-11-07T22:52:43.174Z,101147.03
2018-11-07T22:55:12.253Z,101146.95
2018-11-07T22:57:41.281Z,101156.13
2018-11-07T23:00:20.927Z,101162.91
2018-11-07T23:02:51.683Z,101159.08
2018-11-07T23:05:20.766Z,101163.71
2018-11-07T23:07:51.511Z,101169.66
2018-11-07T23:10:20.546Z,101181.05
2018-11-07T23:12:50.117Z,101180.15
2018-11-07T23:15:24.515Z,101177.45
2018-11-07T23:17:55.463Z,101182.17
2018-11-07T23:20:24.493Z,101185.11
2018-11-07T23:22:53.571Z,101190.52
2018-11-07T23:25:22.645Z,101185.02
2018-11-07T23:27:51.736Z,101190.46
2018-11-07T23:30:20.799Z,101199.77
2018-11-07T23:32:49.843Z,101193.61
2018-11-07T23:35:18.914Z,101189.72
2018-11-07T23:37:48.004Z,101191.38
2018-11-07T23:40:17.062Z,101197.98
2018-11-07T23:42:46.132Z,101199.58
2018-11-07T23:45:15.228Z,101200.23
2018-11-07T23:47:44.307Z,101197.98
2018-11-07T23:50:13.358Z,101201.69
2018-11-07T23:52:48.758Z,101204.36
2018-11-07T23:55:19.202Z,101205.55
2018-11-07T23:57:49.829Z,101203.86
